Time;durP1;ratioP1;P1;durP2;ratioP2;P2;SDS_P1;SDS_P2;PMS_P1;PMS_P2;Temp;Humidity;BMP_temperature;BMP_pressure;BME280_temperature;BME280_humidity;BME280_pressure;Samples;Min_cycle;Max_cycle;Signal;HPM_P1;HPM_P2
2022/06/11 00:00:17;;;;;;;;;;;;;;;17.24;70.32;102000.31;5046268;28;19920;-77
2022/06/11 00:02:42;;;;;;;;;;;;;;;17.20;70.24;102003.97;5047256;28;19913;-77
2022/06/11 00:05:07;;;;;;;;;;;;;;;17.16;70.59;102004.97;5042978;28;19912;-77
2022/06/11 00:07:32;;;;;;;;;;;;;;;17.12;70.25;102002.44;5041877;28;19959;-77
2022/06/11 00:09:58;;;;;;;;;;;;;;;17.07;70.24;102003.53;5046224;28;20003;-77
2022/06/11 00:12:24;;;;;;;;;;;;;;;17.03;70.32;102005.41;5046552;28;19966;-77
2022/06/11 00:14:50;;;;;;;;;;;;;;;16.99;70.52;102003.78;5045161;28;20023;-77
2022/06/11 00:17:16;;;;;;;;;;;;;;;16.96;70.35;101996.88;5043113;28;19912;-77
2022/06/11 00:19:42;;;;;;;;;;;;;;;16.93;70.47;102007.47;5041878;28;19917;-77
2022/06/11 00:22:08;;;;;;;;;;;;;;;16.91;70.52;102003.19;5046361;28;19948;-77
2022/06/11 00:24:34;;;;;;;;;;;;;;;16.87;70.61;102001.56;5043847;28;19920;-77
2022/06/11 00:27:00;;;;;;;;;;;;;;;16.83;70.36;102004.28;5043692;28;19924;-77
2022/06/11 00:29:28;;;;;;;;;;;;;;;16.80;70.72;102007.00;5043190;28;19994;-77
2022/06/11 00:31:54;;;;;;;;;;;;;;;16.77;70.57;101995.75;5037158;28;19963;-77
2022/06/11 00:34:20;;;;;;;;;;;;;;;16.73;70.53;102000.25;5043281;28;19913;-77
2022/06/11 00:36:45;;;;;;;;;;;;;;;16.71;70.58;102004.69;5042389;28;19927;-77
2022/06/11 00:39:12;;;;;;;;;;;;;;;16.68;70.89;101996.91;5043516;28;19932;-77
2022/06/11 00:41:39;;;;;;;;;;;;;;;16.65;70.39;101999.63;5043347;28;19920;-77
2022/06/11 00:44:04;;;;;;;;;;;;;;;16.62;70.76;101997.09;5044244;28;19917;-77
2022/06/11 00:46:46;;;;;;;;;;;;;;;16.61;70.86;101992.75;5043184;28;19974;-77
2022/06/11 00:49:17;;;;;;;;;;;;;;;16.57;70.88;101999.88;5043074;28;19920;-77
2022/06/11 00:51:42;;;;;;;;;;;;;;;16.54;70.63;101992.09;5045148;28;19913;-77
2022/06/11 00:54:10;;;;;;;;;;;;;;;16.52;70.68;101996.53;5043845;28;19913;-78
2022/06/11 00:56:40;;;;;;;;;;;;;;;16.49;70.86;101989.63;5044177;28;20389;-77
2022/06/11 00:59:09;;;;;;;;;;;;;;;16.46;70.47;101992.34;5044347;28;19924;-77
2022/06/11 01:01:34;;;;;;;;;;;;;;;16.44;70.92;101994.16;5048409;28;20375;-77
2022/06/11 01:04:01;;;;;;;;;;;;;;;16.41;70.69;101981.13;5048505;28;19917;-77
2022/06/11 01:06:26;;;;;;;;;;;;;;;16.39;70.93;101985.59;5047111;28;19916;-77
2022/06/11 01:09:04;;;;;;;;;;;;;;;16.39;70.98;101990.84;5044242;28;19920;-77
2022/06/11 01:11:55;;;;;;;;;;;;;;;16.36;71.33;101991.78;5045733;28;19958;-77
2022/06/11 01:14:20;;;;;;;;;;;;;;;16.34;70.84;101985.72;5050849;28;20264;-77
2022/06/11 01:17:05;;;;;;;;;;;;;;;16.33;71.05;101983.16;5050078;28;19912;-77
2022/06/11 01:19:45;;;;;;;;;;;;;;;16.31;71.05;101988.44;5046804;28;20103;-77
2022/06/11 01:22:26;;;;;;;;;;;;;;;16.28;71.20;101985.06;5047028;28;19912;-77
2022/06/11 01:25:03;;;;;;;;;;;;;;;16.26;71.23;101986.88;5046400;28;19956;-77
2022/06/11 01:27:29;;;;;;;;;;;;;;;16.22;71.35;101984.38;5044025;28;19921;-77
2022/06/11 01:29:57;;;;;;;;;;;;;;;16.19;71.10;101987.06;5046495;28;19927;-77
2022/06/11 01:32:22;;;;;;;;;;;;;;;16.17;71.19;101995.88;5044743;28;19913;-77
2022/06/11 01:34:57;;;;;;;;;;;;;;;16.14;71.23;101988.13;5046183;28;19920;-77
2022/06/11 01:37:35;;;;;;;;;;;;;;;16.12;71.26;101990.78;5045716;28;20299;-77
2022/06/11 01:40:07;;;;;;;;;;;;;;;16.10;71.32;101989.97;5044318;28;19924;-77
2022/06/11 01:42:53;;;;;;;;;;;;;;;16.06;71.43;101989.22;5046425;28;20146;-77
2022/06/11 01:45:32;;;;;;;;;;;;;;;16.07;71.76;101995.31;5045072;28;19913;-77
2022/06/11 01:47:58;;;;;;;;;;;;;;;16.03;71.41;101989.28;5048574;28;19920;-77
2022/06/11 01:50:25;;;;;;;;;;;;;;;16.01;71.61;101990.25;5047172;28;19999;-77
2022/06/11 01:52:59;;;;;;;;;;;;;;;15.99;71.79;101987.66;5046609;28;19920;-77
2022/06/11 01:55:27;;;;;;;;;;;;;;;15.99;71.88;101984.19;5044847;28;20012;-77
2022/06/11 01:57:54;;;;;;;;;;;;;;;15.96;71.79;101982.53;5047934;28;19923;-77
2022/06/11 02:00:22;;;;;;;;;;;;;;;15.95;72.23;101985.19;5044190;28;19967;-77
2022/06/11 02:02:50;;;;;;;;;;;;;;;15.92;71.87;101984.38;5043669;28;19956;-77
2022/06/11 02:05:15;;;;;;;;;;;;;;;15.90;71.93;101985.34;5045305;28;19913;-77
2022/06/11 02:07:41;;;;;;;;;;;;;;;15.89;71.73;101981.84;5047927;28;20341;-77
2022/06/11 02:10:34;;;;;;;;;;;;;;;15.87;72.28;101986.28;5046229;28;19913;-77
2022/06/11 02:13:04;;;;;;;;;;;;;;;15.83;72.21;101984.63;5032275;28;19917;-77
2022/06/11 02:15:36;;;;;;;;;;;;;;;15.82;71.99;101982.03;5045349;28;19920;-77
2022/06/11 02:18:13;;;;;;;;;;;;;;;15.81;72.31;101982.94;5046681;28;19917;-77
2022/06/11 02:20:41;;;;;;;;;;;;;;;15.78;72.12;101979.53;5046313;28;19991;-77
2022/06/11 02:23:17;;;;;;;;;;;;;;;15.78;72.25;101978.63;5042189;28;19920;-77
2022/06/11 02:25:45;;;;;;;;;;;;;;;15.77;72.13;101979.53;5043484;28;19959;-77
2022/06/11 02:28:13;;;;;;;;;;;;;;;15.78;72.27;101983.88;5044769;28;19916;-77
2022/06/11 02:30:40;;;;;;;;;;;;;;;15.78;72.41;101979.53;5044779;28;19916;-77
2022/06/11 02:33:08;;;;;;;;;;;;;;;15.79;72.21;101985.63;5044649;28;19919;-77
2022/06/11 02:35:42;;;;;;;;;;;;;;;15.79;72.35;101985.63;5043929;28;19916;-77
2022/06/11 02:38:09;;;;;;;;;;;;;;;15.79;72.49;101983.00;5048583;28;20034;-77
2022/06/11 02:40:38;;;;;;;;;;;;;;;15.76;72.35;101983.94;5045511;28;19917;-77
2022/06/11 02:43:03;;;;;;;;;;;;;;;15.76;72.44;101991.81;5046878;28;20011;-77
2022/06/11 02:45:28;;;;;;;;;;;;;;;15.75;72.30;101991.84;5029682;28;20003;-77
2022/06/11 02:47:54;;;;;;;;;;;;;;;15.73;72.36;101996.28;5046789;28;20363;-77
2022/06/11 02:50:23;;;;;;;;;;;;;;;15.72;72.43;101994.56;5050380;28;19952;-77
2022/06/11 02:52:48;;;;;;;;;;;;;;;15.71;72.58;101998.09;5046522;28;19935;-76
2022/06/11 02:55:13;;;;;;;;;;;;;;;15.71;72.32;102008.59;5045978;28;19916;-77
2022/06/11 02:57:38;;;;;;;;;;;;;;;15.69;72.54;102005.16;5045290;28;20130;-77
2022/06/11 03:00:05;;;;;;;;;;;;;;;15.67;72.36;102007.81;5043367;28;19921;-77
2022/06/11 03:02:31;;;;;;;;;;;;;;;15.66;72.19;102007.88;5043696;28;19921;-77
2022/06/11 03:04:56;;;;;;;;;;;;;;;15.65;72.26;102009.63;5043383;28;20434;-77
2022/06/11 03:07:22;;;;;;;;;;;;;;;15.63;72.43;102014.91;5048055;28;20367;-77
2022/06/11 03:09:47;;;;;;;;;;;;;;;15.63;72.54;102009.66;5042857;28;20011;-77
2022/06/11 03:12:13;;;;;;;;;;;;;;;15.61;72.61;102013.25;5042963;28;19919;-77
2022/06/11 03:14:41;;;;;;;;;;;;;;;15.61;72.42;102021.97;5025233;28;19920;-77
2022/06/11 03:17:06;;;;;;;;;;;;;;;15.59;72.55;102021.13;5028451;28;19963;-77
2022/06/11 03:19:32;;;;;;;;;;;;;;;15.60;72.45;102025.50;5046387;28;19956;-77
2022/06/11 03:21:57;;;;;;;;;;;;;;;15.58;72.66;102022.03;5049788;28;19913;-77
2022/06/11 03:24:23;;;;;;;;;;;;;;;15.59;72.59;102026.38;5048584;28;19959;-77
2022/06/11 03:26:49;;;;;;;;;;;;;;;15.59;72.71;102031.63;5048884;28;19916;-77
2022/06/11 03:29:15;;;;;;;;;;;;;;;15.60;72.49;102028.13;5050526;28;19974;-77
2022/06/11 03:31:40;;;;;;;;;;;;;;;15.60;72.58;102030.72;5050413;28;20256;-77
2022/06/11 03:34:06;;;;;;;;;;;;;;;15.62;72.63;102030.72;5050239;28;20356;-77
2022/06/11 03:36:31;;;;;;;;;;;;;;;15.62;72.69;102042.06;5048383;28;19912;-77
2022/06/11 03:38:56;;;;;;;;;;;;;;;15.63;72.62;102041.16;5047297;28;20011;-77
2022/06/11 03:41:22;;;;;;;;;;;;;;;15.67;72.50;102046.31;5050141;28;19919;-77
2022/06/11 03:43:49;;;;;;;;;;;;;;;15.67;72.85;102044.53;5032823;28;19936;-77
2022/06/11 03:46:14;;;;;;;;;;;;;;;15.69;72.78;102045.34;5047116;28;19913;-77
2022/06/11 03:48:39;;;;;;;;;;;;;;;15.72;72.84;102047.03;5049226;28;20011;-77
2022/06/11 03:51:06;;;;;;;;;;;;;;;15.75;72.71;102052.19;5049512;28;19913;-77
2022/06/11 03:53:32;;;;;;;;;;;;;;;15.75;72.81;102053.06;5048707;28;19919;-77
2022/06/11 03:55:57;;;;;;;;;;;;;;;15.77;72.67;102055.63;5050833;28;19991;-77
2022/06/11 03:58:23;;;;;;;;;;;;;;;15.79;72.67;102053.84;5049011;28;19951;-77
2022/06/11 04:03:33;;;;;;;;;;;;;;;15.83;72.42;102067.72;5046531;28;19920;-77
2022/06/11 04:05:58;;;;;;;;;;;;;;;15.84;72.78;102061.56;5050140;28;19917;-77
2022/06/11 04:08:24;;;;;;;;;;;;;;;15.85;72.32;102064.19;5046880;28;19988;-77
2022/06/11 04:10:51;;;;;;;;;;;;;;;15.85;72.69;102072.06;5049712;28;19919;-77
2022/06/11 04:13:16;;;;;;;;;;;;;;;15.85;72.56;102069.44;5047664;28;19999;-77
2022/06/11 04:15:42;;;;;;;;;;;;;;;15.85;72.69;102074.69;5050039;28;20356;-77
2022/06/11 04:18:08;;;;;;;;;;;;;;;15.86;72.63;102070.28;5029198;28;20291;-77
2022/06/11 04:20:34;;;;;;;;;;;;;;;15.86;72.29;102079.03;5029704;28;19913;-77
2022/06/11 04:23:00;;;;;;;;;;;;;;;15.87;72.36;102072.91;5044825;28;19923;-77
2022/06/11 04:25:26;;;;;;;;;;;;;;;15.88;72.03;102077.25;5048592;28;20007;-77
2022/06/11 04:27:53;;;;;;;;;;;;;;;15.88;72.04;102082.50;5042156;28;20411;-77
2022/06/11 04:30:19;;;;;;;;;;;;;;;15.90;71.89;102083.28;5048660;28;19920;-77
2022/06/11 04:32:44;;;;;;;;;;;;;;;15.90;71.98;102083.28;5044647;28;19913;-77
2022/06/11 04:35:09;;;;;;;;;;;;;;;15.90;72.07;102080.66;5045306;28;19974;-77
2022/06/11 04:37:34;;;;;;;;;;;;;;;15.93;72.06;102093.69;5049535;28;19916;-77
2022/06/11 04:40:00;;;;;;;;;;;;;;;15.95;72.27;102090.16;5053590;28;20333;-77
2022/06/11 04:42:26;;;;;;;;;;;;;;;15.96;71.83;102099.75;5035989;28;19923;-77
2022/06/11 04:44:52;;;;;;;;;;;;;;;15.98;71.91;102090.94;5048488;28;19963;-77
2022/06/11 04:47:21;;;;;;;;;;;;;;;16.00;71.77;102088.28;5050109;28;19965;-77
2022/06/11 04:49:46;;;;;;;;;;;;;;;16.03;71.74;102093.44;5034418;28;20390;-77
2022/06/11 04:52:11;;;;;;;;;;;;;;;16.05;71.63;102097.75;5050778;28;19950;-77
2022/06/11 04:54:37;;;;;;;;;;;;;;;16.08;71.61;102099.41;5053402;28;19916;-77
2022/06/11 04:57:02;;;;;;;;;;;;;;;16.08;71.86;102100.28;5047647;28;20019;-77
2022/06/11 04:59:28;;;;;;;;;;;;;;;16.12;71.75;102095.78;5048227;28;19956;-77
2022/06/11 05:01:53;;;;;;;;;;;;;;;16.13;71.66;102094.88;5049863;28;21436;-77
2022/06/11 05:04:18;;;;;;;;;;;;;;;16.14;71.35;102099.25;5048157;28;20282;-77
2022/06/11 05:06:45;;;;;;;;;;;;;;;16.15;71.44;102093.09;5049093;28;19979;-77
2022/06/11 05:09:12;;;;;;;;;;;;;;;16.15;71.23;102093.09;5049345;28;19988;-77
2022/06/11 05:11:37;;;;;;;;;;;;;;;16.17;70.79;102096.53;5045951;28;20364;-77
2022/06/11 05:14:02;;;;;;;;;;;;;;;16.19;70.90;102094.72;5049012;28;19970;-77
2022/06/11 05:16:28;;;;;;;;;;;;;;;16.20;70.77;102096.44;5048724;28;20134;-77
2022/06/11 05:18:54;;;;;;;;;;;;;;;16.23;70.67;102095.50;5048897;28;20023;-77
2022/06/11 05:21:19;;;;;;;;;;;;;;;16.24;70.32;102100.69;5029374;28;19974;-77
2022/06/11 05:23:44;;;;;;;;;;;;;;;16.25;69.92;102109.44;5047939;28;20086;-77
2022/06/11 05:26:13;;;;;;;;;;;;;;;16.24;70.09;102107.72;5048903;28;20435;-77
2022/06/11 05:28:38;;;;;;;;;;;;;;;16.25;70.11;102117.31;5029594;28;20247;-77
2022/06/11 05:59:29;;;;;;;;;;;;;;;16.26;68.05;102116.41;5011298;28;19932;-77
2022/06/11 06:01:55;;;;;;;;;;;;;;;16.28;67.72;102113.72;5008258;28;19928;-77
2022/06/11 06:04:21;;;;;;;;;;;;;;;16.30;67.66;102119.78;5009410;28;19915;-77
2022/06/11 06:06:46;;;;;;;;;;;;;;;16.33;67.70;102122.34;5012688;28;19913;-77
2022/06/11 06:09:11;;;;;;;;;;;;;;;16.37;67.51;102129.22;5012521;28;19913;-77
2022/06/11 06:11:36;;;;;;;;;;;;;;;16.40;67.14;102123.84;5007358;28;19925;-76
2022/06/11 06:14:02;;;;;;;;;;;;;;;16.39;66.89;102128.25;5009075;28;19913;-77
2022/06/11 06:16:29;;;;;;;;;;;;;;;16.41;66.96;102133.47;5008381;28;19983;-77
2022/06/11 06:18:55;;;;;;;;;;;;;;;16.44;66.99;102119.41;5011873;28;20403;-77
2022/06/11 06:21:22;;;;;;;;;;;;;;;16.45;66.94;102126.38;5009677;28;19913;-77
2022/06/11 06:23:47;;;;;;;;;;;;;;;16.49;66.93;102133.22;5012324;28;19913;-76
2022/06/11 06:26:12;;;;;;;;;;;;;;;16.54;66.99;102134.84;5007198;28;19913;-77
2022/06/11 06:28:38;;;;;;;;;;;;;;;16.61;67.03;102137.25;5010775;28;19913;-77
2022/06/11 06:31:04;;;;;;;;;;;;;;;16.66;66.63;102124.84;5012108;28;20233;-77
2022/06/11 06:33:32;;;;;;;;;;;;;;;16.71;66.63;102133.47;5008561;28;20372;-77
2022/06/11 06:35:58;;;;;;;;;;;;;;;16.73;66.52;102136.91;5010289;28;19929;-77
2022/06/11 06:38:24;;;;;;;;;;;;;;;16.74;66.49;102138.59;5010651;28;19913;-77
2022/06/11 06:40:49;;;;;;;;;;;;;;;16.74;66.16;102138.59;5010183;28;20287;-77
2022/06/11 06:43:14;;;;;;;;;;;;;;;16.76;66.46;102142.03;5010186;28;19921;-77
2022/06/11 06:45:39;;;;;;;;;;;;;;;16.80;66.21;102142.81;5012879;28;20213;-77
2022/06/11 06:48:05;;;;;;;;;;;;;;;16.82;66.25;102147.13;5012062;28;19928;-77
2022/06/11 06:50:30;;;;;;;;;;;;;;;16.80;66.02;102143.66;5009042;28;20078;-77
2022/06/11 06:52:55;;;;;;;;;;;;;;;16.79;65.86;102147.22;5011599;28;21117;-77
2022/06/11 06:55:20;;;;;;;;;;;;;;;16.79;65.72;102144.56;5009233;28;19913;-77
2022/06/11 06:57:46;;;;;;;;;;;;;;;16.77;66.05;102151.66;5023191;28;19928;-77
2022/06/11 07:00:11;;;;;;;;;;;;;;;16.79;65.76;102147.22;5049279;28;19923;-77
2022/06/11 07:02:37;;;;;;;;;;;;;;;16.84;66.06;102149.69;5047639;28;19920;-77
2022/06/11 07:05:02;;;;;;;;;;;;;;;16.88;65.84;102155.72;5048815;28;20371;-77
2022/06/11 07:07:27;;;;;;;;;;;;;;;16.96;65.57;102148.47;5044656;28;20043;-77
2022/06/11 07:09:54;;;;;;;;;;;;;;;17.04;65.83;102146.47;5046890;28;19920;-77
2022/06/11 07:12:19;;;;;;;;;;;;;;;17.10;65.71;102145.41;5043545;28;20003;-77
2022/06/11 07:14:44;;;;;;;;;;;;;;;17.16;65.46;102141.72;5048204;28;20390;-77
2022/06/11 07:17:10;;;;;;;;;;;;;;;17.18;65.28;102142.53;5044105;28;19921;-77
2022/06/11 07:19:38;;;;;;;;;;;;;;;17.17;65.36;102139.03;5049504;28;19931;-77
2022/06/11 07:22:10;;;;;;;;;;;;;;;17.22;65.53;102138.91;5048461;28;19913;-77
2022/06/11 07:24:37;;;;;;;;;;;;;;;17.29;65.19;102137.78;5047461;28;19912;-77
2022/06/11 07:27:06;;;;;;;;;;;;;;;17.32;65.46;102137.66;5050359;28;19976;-77
2022/06/11 07:29:36;;;;;;;;;;;;;;;17.35;65.17;102131.44;5051798;28;21314;-77
2022/06/11 07:32:03;;;;;;;;;;;;;;;17.39;64.78;102131.31;5051042;28;19917;-77
2022/06/11 07:34:29;;;;;;;;;;;;;;;17.43;65.10;102132.91;5043678;28;19920;-77
2022/06/11 07:36:56;;;;;;;;;;;;;;;17.50;64.82;102130.06;5050789;28;19916;-77
2022/06/11 07:39:21;;;;;;;;;;;;;;;17.54;64.80;102136.94;5040266;28;19920;-77
2022/06/11 07:41:46;;;;;;;;;;;;;;;17.57;64.50;102140.31;5055371;28;19923;-77
2022/06/11 07:44:11;;;;;;;;;;;;;;;17.65;64.92;102140.06;5056434;28;19920;-77
2022/06/11 07:46:37;;;;;;;;;;;;;;;17.75;64.56;102133.59;5056188;28;20350;-77
2022/06/11 07:49:02;;;;;;;;;;;;;;;17.87;64.61;102137.53;5037194;28;19920;-78
2022/06/11 07:51:27;;;;;;;;;;;;;;;17.97;64.23;102139.84;5055304;28;19961;-77
2022/06/11 07:53:52;;;;;;;;;;;;;;;18.05;64.05;102148.34;5055845;28;19917;-77
2022/06/11 07:56:19;;;;;;;;;;;;;;;18.10;63.86;102148.19;5054151;28;19920;-77
2022/06/11 07:58:44;;;;;;;;;;;;;;;18.14;63.83;102144.50;5053445;28;20394;-77
2022/06/11 08:01:09;;;;;;;;;;;;;;;18.15;63.20;102146.22;5036886;28;19920;-77
2022/06/11 08:03:37;;;;;;;;;;;;;;;18.16;63.70;102154.09;5052277;28;20013;-77
2022/06/11 08:06:03;;;;;;;;;;;;;;;18.20;62.94;102154.81;5050399;28;19916;-77
2022/06/11 08:08:28;;;;;;;;;;;;;;;18.22;63.25;102152.13;5046678;28;19923;-77
2022/06/11 08:10:54;;;;;;;;;;;;;;;18.23;62.47;102151.22;5049477;28;20713;-77
2022/06/11 08:13:19;;;;;;;;;;;;;;;18.22;62.70;102153.00;5057729;28;19920;-77
2022/06/11 08:15:46;;;;;;;;;;;;;;;18.28;62.57;102163.28;5062797;28;19926;-77
2022/06/11 08:18:12;;;;;;;;;;;;;;;18.28;62.18;102154.53;5054500;28;20011;-77
2022/06/11 08:20:37;;;;;;;;;;;;;;;18.29;61.73;102169.44;5061407;28;19920;-77
2022/06/11 08:23:03;;;;;;;;;;;;;;;18.31;61.60;102168.44;5060816;28;19927;-77
2022/06/11 08:25:28;;;;;;;;;;;;;;;18.40;62.00;102169.88;5039362;28;20605;-77
2022/06/11 08:27:54;;;;;;;;;;;;;;;18.49;62.00;102166.91;5063498;28;19916;-77
2022/06/11 08:30:20;;;;;;;;;;;;;;;18.63;61.83;102170.78;5062401;28;20309;-78
2022/06/11 08:32:46;;;;;;;;;;;;;;;18.68;61.61;102181.16;5059751;28;19916;-77
2022/06/11 08:35:13;;;;;;;;;;;;;;;18.69;61.33;102185.50;5062295;28;20561;-77
2022/06/11 08:37:38;;;;;;;;;;;;;;;18.70;61.01;102181.94;5060735;28;19916;-77
2022/06/11 08:40:07;;;;;;;;;;;;;;;18.71;60.60;102188.94;5061682;28;19931;-78
2022/06/11 08:42:37;;;;;;;;;;;;;;;18.73;60.74;102187.97;5061763;28;20428;-77
2022/06/11 08:45:04;;;;;;;;;;;;;;;18.75;60.38;102187.91;5061776;28;19916;-77
2022/06/11 08:47:36;;;;;;;;;;;;;;;18.78;60.38;102186.00;5055233;28;19929;-77
2022/06/11 08:50:01;;;;;;;;;;;;;;;18.81;60.40;102198.19;5060254;28;19916;-77
2022/06/11 08:52:29;;;;;;;;;;;;;;;18.80;60.32;102193.84;5061530;28;19919;-77
2022/06/11 08:54:56;;;;;;;;;;;;;;;18.79;60.53;102184.22;5059839;28;20375;-77
2022/06/11 08:57:25;;;;;;;;;;;;;;;18.75;60.65;102186.13;5056076;28;19932;-77
2022/06/11 09:00:02;;;;;;;;;;;;;;;18.75;60.81;102193.19;5052650;28;20379;-77
2022/06/11 09:02:43;;;;;;;;;;;;;;;18.78;61.02;102187.81;5056045;28;20383;-77
2022/06/11 09:05:23;;;;;;;;;;;;;;;18.83;61.08;102185.81;5055586;28;20359;-77
2022/06/11 09:08:08;;;;;;;;;;;;;;;18.87;60.99;102183.94;5056330;28;19913;-77
2022/06/11 09:10:39;;;;;;;;;;;;;;;18.86;60.68;102183.06;5062167;28;19916;-78
2022/06/11 09:13:04;;;;;;;;;;;;;;;18.83;60.26;102183.19;5056560;28;19962;-77
2022/06/11 09:15:50;;;;;;;;;;;;;;;18.83;60.56;102175.28;5060762;28;19960;-77
2022/06/11 09:18:29;;;;;;;;;;;;;;;18.84;60.29;102178.78;5059350;28;19969;-77
2022/06/11 09:20:56;;;;;;;;;;;;;;;18.83;60.96;102180.56;5061031;28;19920;-77
2022/06/11 09:23:33;;;;;;;;;;;;;;;18.82;60.83;102184.09;5059518;28;19924;-77
2022/06/11 09:26:09;;;;;;;;;;;;;;;18.83;60.86;102180.56;5055181;28;19948;-78
2022/06/11 09:28:37;;;;;;;;;;;;;;;18.82;61.01;102176.19;5057956;28;19962;-78
2022/06/11 09:31:09;;;;;;;;;;;;;;;18.83;61.07;102177.91;5058552;28;19920;-77
2022/06/11 09:33:40;;;;;;;;;;;;;;;18.84;61.46;102171.72;5060487;28;19920;-77
2022/06/11 09:36:08;;;;;;;;;;;;;;;18.89;61.01;102171.53;5059723;28;20279;-79
2022/06/11 09:38:45;;;;;;;;;;;;;;;18.94;61.19;102172.22;5058850;28;19974;-77
2022/06/11 09:41:20;;;;;;;;;;;;;;;19.04;61.12;102180.66;5056317;28;20015;-77
2022/06/11 09:43:57;;;;;;;;;;;;;;;19.13;60.75;102172.34;5058640;28;20419;-77
2022/06/11 09:46:33;;;;;;;;;;;;;;;19.26;60.91;102178.00;5038991;28;20085;-77
2022/06/11 09:49:07;;;;;;;;;;;;;;;19.38;60.66;102174.00;5058346;28;19951;-77
2022/06/11 09:51:38;;;;;;;;;;;;;;;19.46;60.36;102169.28;5054219;28;20007;-78
2022/06/11 09:54:12;;;;;;;;;;;;;;;19.53;60.63;102170.72;5055117;28;19999;-77
2022/06/11 09:56:44;;;;;;;;;;;;;;;19.61;60.36;102175.66;5057682;28;19922;-77
2022/06/11 09:59:16;;;;;;;;;;;;;;;19.64;59.64;102185.25;5054845;28;19924;-77
2022/06/11 10:02:16;;;;;;;;;;;;;;;19.58;59.74;102181.06;5058472;28;19923;-77
2022/06/11 10:04:44;;;;;;;;;;;;;;;19.51;58.71;102177.81;5045132;28;19916;-79
2022/06/11 10:07:12;;;;;;;;;;;;;;;19.50;57.47;102180.53;5057136;28;19923;-79
2022/06/11 10:09:43;;;;;;;;;;;;;;;19.47;57.08;102181.50;5059909;28;19916;-79
2022/06/11 10:12:23;;;;;;;;;;;;;;;19.39;57.67;102181.00;5056121;28;19917;-78
2022/06/11 10:14:54;;;;;;;;;;;;;;;19.34;57.22;102189.09;5058137;28;20078;-78
2022/06/11 10:17:27;;;;;;;;;;;;;;;19.34;57.53;102189.09;5057798;28;19999;-78
2022/06/11 10:20:04;;;;;;;;;;;;;;;19.31;57.65;102188.34;5057023;28;19931;-77
2022/06/11 10:22:36;;;;;;;;;;;;;;;19.31;58.36;102181.31;5045825;28;20363;-77
2022/06/11 10:25:04;;;;;;;;;;;;;;;19.35;58.03;102187.31;5051467;28;20007;-78
2022/06/11 10:27:31;;;;;;;;;;;;;;;19.38;57.95;102192.47;5057948;28;20358;-78
2022/06/11 10:30:02;;;;;;;;;;;;;;;19.44;57.81;102196.63;5045601;28;19985;-79
2022/06/11 10:32:32;;;;;;;;;;;;;;;19.50;57.78;102191.94;5049070;28;19916;-78
2022/06/11 10:35:04;;;;;;;;;;;;;;;19.52;57.74;102182.19;5032375;28;19916;-78
2022/06/11 10:37:35;;;;;;;;;;;;;;;19.58;57.86;102180.22;5011160;28;19963;-78
2022/06/11 10:40:19;;;;;;;;;;;;;;;19.63;57.81;102183.53;5031896;28;19924;-79
2022/06/11 10:42:55;;;;;;;;;;;;;;;19.65;57.73;102189.56;5051450;28;19982;-77
2022/06/11 10:45:20;;;;;;;;;;;;;;;19.66;57.70;102184.25;5057011;28;19920;-77
2022/06/11 10:47:48;;;;;;;;;;;;;;;19.67;57.66;102182.44;5052735;28;20316;-77
2022/06/11 10:50:13;;;;;;;;;;;;;;;19.68;57.61;102184.16;5051481;28;19923;-78
2022/06/11 10:52:38;;;;;;;;;;;;;;;19.70;57.30;102184.97;5053725;28;19912;-79
2022/06/11 10:55:08;;;;;;;;;;;;;;;19.72;57.55;102180.47;5057483;28;21355;-79
2022/06/11 10:57:33;;;;;;;;;;;;;;;19.72;57.48;102177.84;5053445;28;19931;-77
2022/06/11 11:00:05;;;;;;;;;;;;;;;19.72;57.95;102180.47;5055503;28;19924;-78
2022/06/11 11:02:33;;;;;;;;;;;;;;;19.73;57.54;102169.00;5050759;28;20381;-78
2022/06/11 11:05:02;;;;;;;;;;;;;;;19.75;57.64;102168.91;5038886;28;20458;-78
2022/06/11 11:07:41;;;;;;;;;;;;;;;19.79;57.41;102175.78;5041502;28;20023;-78
2022/06/11 11:10:17;;;;;;;;;;;;;;;19.80;57.40;102173.09;5041605;28;19920;-78
2022/06/11 11:12:42;;;;;;;;;;;;;;;19.83;56.52;102172.94;5044072;28;22091;-78
2022/06/11 11:15:10;;;;;;;;;;;;;;;19.86;56.63;102178.09;5048608;28;20541;-80
2022/06/11 11:17:35;;;;;;;;;;;;;;;19.91;56.44;102169.16;5055158;28;20389;-79
2022/06/11 11:23:14;;;;;;;;;;;;;;;19.94;55.71;102169.88;4975997;28;19976;-78
2022/06/11 11:25:42;;;;;;;;;;;;;;;19.93;54.95;102173.44;5031186;28;19971;-78
2022/06/11 11:28:15;;;;;;;;;;;;;;;19.95;55.49;102168.94;5045853;28;20003;-80
2022/06/11 11:30:40;;;;;;;;;;;;;;;20.00;55.10;102174.00;5043978;28;19939;-77
2022/06/11 11:33:32;;;;;;;;;;;;;;;20.03;55.14;102165.97;5047944;28;19925;-78
2022/06/11 11:36:10;;;;;;;;;;;;;;;20.07;55.54;102164.91;5022557;28;19916;-78
2022/06/11 11:38:35;;;;;;;;;;;;;;;20.09;54.48;102163.06;5044355;28;19920;-78
2022/06/11 11:41:01;;;;;;;;;;;;;;;20.09;54.83;102167.47;5054854;28;19927;-79
2022/06/11 11:43:35;;;;;;;;;;;;;;;20.16;54.96;102163.63;5052645;28;20400;-79
2022/06/11 11:46:03;;;;;;;;;;;;;;;20.24;54.83;102160.63;5049047;28;19920;-78
2022/06/11 11:48:33;;;;;;;;;;;;;;;20.30;54.53;102155.94;5054378;28;20007;-78
2022/06/11 11:51:07;;;;;;;;;;;;;;;20.34;54.51;102161.91;5049910;28;20287;-78
2022/06/11 11:53:36;;;;;;;;;;;;;;;20.33;54.85;102160.19;5048617;28;19920;-78
2022/06/11 11:56:03;;;;;;;;;;;;;;;20.37;54.88;102156.50;5050860;28;20059;-80
2022/06/11 11:58:31;;;;;;;;;;;;;;;20.42;54.77;102148.34;5047898;28;19994;-77
2022/06/11 12:01:02;;;;;;;;;;;;;;;20.42;55.04;102149.22;5050131;28;19925;-78
2022/06/11 12:03:27;;;;;;;;;;;;;;;20.43;54.88;102156.22;5050765;28;19923;-78
2022/06/11 12:05:54;;;;;;;;;;;;;;;20.50;55.25;102161.19;5038411;28;19920;-77
2022/06/11 12:08:39;;;;;;;;;;;;;;;20.54;54.59;102147.78;5057090;28;19927;-78
2022/06/11 12:11:05;;;;;;;;;;;;;;;20.59;54.74;102147.56;5054463;28;20444;-77
2022/06/11 12:13:30;;;;;;;;;;;;;;;20.57;54.71;102139.72;5050702;28;19921;-77
2022/06/11 12:15:58;;;;;;;;;;;;;;;20.57;54.59;102146.78;5056360;28;19973;-77
2022/06/11 12:18:27;;;;;;;;;;;;;;;20.58;54.95;102141.41;5055396;28;19917;-78
2022/06/11 12:20:54;;;;;;;;;;;;;;;20.59;54.23;102148.41;5051391;28;20480;-79
2022/06/11 12:23:33;;;;;;;;;;;;;;;20.62;54.97;102142.13;5055412;28;19979;-79
2022/06/11 12:26:18;;;;;;;;;;;;;;;20.73;54.78;102137.19;5053924;28;19916;-79
2022/06/11 12:28:43;;;;;;;;;;;;;;;20.88;54.81;102134.75;5024302;28;20348;-79
2022/06/11 12:31:10;;;;;;;;;;;;;;;20.98;54.98;102135.16;5051298;28;20007;-79
2022/06/11 12:33:36;;;;;;;;;;;;;;;21.06;54.49;102136.50;5049920;28;19963;-79
2022/06/11 12:36:05;;;;;;;;;;;;;;;21.17;54.36;102129.84;5045370;28;19924;-78
2022/06/11 12:38:34;;;;;;;;;;;;;;;21.31;54.62;102127.34;5046686;28;19974;-76
2022/06/11 12:40:59;;;;;;;;;;;;;;;21.34;54.07;102137.78;5022648;28;19955;-76
2022/06/11 12:43:34;;;;;;;;;;;;;;;21.34;53.76;102135.13;5043984;28;20010;-77
2022/06/11 12:46:11;;;;;;;;;;;;;;;21.36;53.92;102127.94;5048112;28;19999;-77
2022/06/11 12:48:43;;;;;;;;;;;;;;;21.42;54.10;102137.38;5050352;28;19913;-77
2022/06/11 12:51:14;;;;;;;;;;;;;;;21.51;53.49;102136.06;5048488;28;19921;-77
2022/06/11 12:53:48;;;;;;;;;;;;;;;21.60;53.90;102138.25;5050652;28;19956;-77
2022/06/11 12:56:25;;;;;;;;;;;;;;;21.65;53.54;102136.22;5056064;28;19916;-77
2022/06/11 12:58:56;;;;;;;;;;;;;;;21.70;53.40;102143.03;5052789;28;19924;-76
2022/06/11 13:01:34;;;;;;;;;;;;;;;21.78;53.50;102141.72;5060411;28;19921;-77
2022/06/11 13:04:14;;;;;;;;;;;;;;;21.89;53.76;102141.16;5027171;28;20596;-77
2022/06/11 13:06:55;;;;;;;;;;;;;;;21.97;53.24;102131.00;5054791;28;19927;-77
2022/06/11 13:09:38;;;;;;;;;;;;;;;22.08;53.03;102133.09;5057819;28;20032;-77
2022/06/11 13:12:16;;;;;;;;;;;;;;;22.15;52.51;102144.19;5059765;28;19935;-77
2022/06/11 13:14:57;;;;;;;;;;;;;;;22.19;52.24;102134.28;5056962;28;19927;-77
2022/06/11 13:17:41;;;;;;;;;;;;;;;22.16;52.29;102137.97;5058484;28;19916;-76